createdAt,value
2022-08-16T00:01:01.316Z,2.25
2022-08-16T00:03:28.732Z,2.20
2022-08-16T00:05:57.471Z,1.70
2022-08-16T00:08:36.169Z,2.17
2022-08-16T00:11:06.596Z,2.30
2022-08-16T00:13:41.723Z,2.15
2022-08-16T00:17:06.372Z,2.00
2022-08-16T00:18:59.658Z,2.50
2022-08-16T00:21:28.928Z,2.22
2022-08-16T00:23:57.316Z,2.00
2022-08-16T00:26:35.976Z,2.30
2022-08-16T00:29:06.356Z,2.13
2022-08-16T00:31:59.036Z,2.33
2022-08-16T00:34:21.982Z,2.30
2022-08-16T00:37:09.459Z,2.20
2022-08-16T00:39:36.966Z,2.22
2022-08-16T00:42:10.414Z,2.33
2022-08-16T00:44:37.986Z,2.50
2022-08-16T00:47:08.612Z,2.50
2022-08-16T00:49:39.366Z,2.50
2022-08-16T00:52:29.663Z,2.65
2022-08-16T00:54:59.474Z,2.70
2022-08-16T00:57:33.088Z,2.45
2022-08-16T01:00:19.747Z,2.45
2022-08-16T01:02:48.938Z,2.30
2022-08-16T01:05:16.568Z,2.60
2022-08-16T01:07:51.699Z,2.80
2022-08-16T01:10:32.331Z,2.45
2022-08-16T01:13:12.097Z,2.50
2022-08-16T01:15:43.124Z,2.40
2022-08-16T01:18:39.918Z,2.40
2022-08-16T01:21:16.895Z,2.25
2022-08-16T01:24:52.153Z,2.65
2022-08-16T01:27:23.970Z,2.30
2022-08-16T01:29:59.614Z,2.58
2022-08-16T01:32:34.048Z,2.50
2022-08-16T01:35:27.107Z,2.25
2022-08-16T01:37:56.210Z,2.20
2022-08-16T01:40:29.774Z,2.38
2022-08-16T01:45:40.841Z,2.42
2022-08-16T01:48:19.951Z,2.70
2022-08-16T01:51:09.579Z,2.65
2022-08-16T01:53:40.741Z,2.58
2022-08-16T01:56:25.546Z,2.90
2022-08-16T01:58:57.441Z,2.40
2022-08-16T02:01:27.939Z,2.33
2022-08-16T02:03:58.213Z,2.35
2022-08-16T02:06:34.685Z,2.45
2022-08-16T02:09:05.611Z,2.50
2022-08-16T02:11:47.491Z,2.13
2022-08-16T02:14:18.679Z,2.50
2022-08-16T02:16:50.251Z,2.60
2022-08-16T02:19:19.873Z,2.38
2022-08-16T02:22:08.666Z,2.28
2022-08-16T02:24:42.251Z,2.50
2022-08-16T02:27:13.782Z,2.42
2022-08-16T02:29:42.876Z,2.67
2022-08-16T02:32:50.836Z,2.85
2022-08-16T02:34:59.215Z,3.10
2022-08-16T02:37:51.622Z,2.15
2022-08-16T02:40:17.036Z,3.15
2022-08-16T02:42:45.526Z,2.47
2022-08-16T02:45:15.930Z,2.55
2022-08-16T02:48:01.317Z,2.65
2022-08-16T02:50:55.563Z,2.45
2022-08-16T02:53:23.698Z,2.70
2022-08-16T02:55:52.394Z,2.50
2022-08-16T02:58:25.055Z,2.67
2022-08-16T03:00:55.927Z,3.08
2022-08-16T03:03:26.185Z,2.60
2022-08-16T03:05:57.487Z,2.90
2022-08-16T03:08:52.371Z,2.67
2022-08-16T03:11:16.766Z,2.50
2022-08-16T03:13:51.380Z,2.90
2022-08-16T03:16:36.610Z,2.47
2022-08-16T03:19:07.422Z,2.40
2022-08-16T03:21:38.243Z,2.53
2022-08-16T03:24:29.425Z,2.70
2022-08-16T03:27:00.482Z,2.88
2022-08-16T03:29:32.071Z,2.85
2022-08-16T03:32:01.864Z,2.58
2022-08-16T03:34:30.206Z,2.85
2022-08-16T03:36:58.344Z,2.85
2022-08-16T03:39:26.131Z,2.80
2022-08-16T03:41:59.660Z,2.75
2022-08-16T03:44:44.325Z,2.70
2022-08-16T03:47:18.949Z,2.55
2022-08-16T03:49:51.901Z,3.03
2022-08-16T03:52:23.633Z,2.88
2022-08-16T03:54:58.111Z,2.63
2022-08-16T03:57:32.061Z,3.00
2022-08-16T04:00:35.168Z,3.00
2022-08-16T04:03:09.171Z,3.00
2022-08-16T04:05:44.088Z,2.70
2022-08-16T04:08:22.902Z,2.83
2022-08-16T04:10:55.143Z,2.70
2022-08-16T04:14:01.590Z,2.88
2022-08-16T04:16:27.205Z,3.03
2022-08-16T04:19:06.469Z,3.05
2022-08-16T04:21:35.539Z,2.95
2022-08-16T04:24:03.810Z,2.67
2022-08-16T04:26:35.858Z,2.78
2022-08-16T04:29:16.394Z,2.80
2022-08-16T04:31:55.683Z,3.08
2022-08-16T04:34:32.451Z,2.90
2022-08-16T04:37:01.697Z,2.60
2022-08-16T04:39:44.971Z,2.97
2022-08-16T04:42:17.562Z,2.78
2022-08-16T04:44:54.169Z,2.60
2022-08-16T04:47:31.698Z,2.70
2022-08-16T04:50:03.688Z,2.83
2022-08-16T04:52:34.925Z,2.80
2022-08-16T04:55:12.030Z,2.80
2022-08-16T04:57:41.403Z,2.72
2022-08-16T05:00:30.376Z,2.75
2022-08-16T05:03:07.489Z,2.95
2022-08-16T05:05:45.480Z,2.78
2022-08-16T05:08:29.917Z,2.90
2022-08-16T05:11:08.257Z,2.55
2022-08-16T05:13:42.670Z,3.00
2022-08-16T05:16:22.984Z,2.90
2022-08-16T05:18:58.366Z,3.00
2022-08-16T05:21:35.960Z,3.00
2022-08-16T05:24:09.190Z,2.90
2022-08-16T05:26:43.031Z,3.17
2022-08-16T05:29:15.245Z,3.00
2022-08-16T05:31:55.343Z,2.90
2022-08-16T05:34:22.853Z,2.50
2022-08-16T05:36:57.236Z,2.78
2022-08-16T05:39:29.069Z,2.70
2022-08-16T05:42:01.204Z,2.70
2022-08-16T05:44:28.948Z,2.72
2022-08-16T05:47:00.638Z,2.60
2022-08-16T05:49:39.669Z,2.88
2022-08-16T05:52:13.428Z,2.72
2022-08-16T05:54:47.332Z,2.45
2022-08-16T05:57:17.968Z,2.80
2022-08-16T05:59:47.393Z,2.75
2022-08-16T06:02:18.594Z,2.75
2022-08-16T06:04:47.017Z,2.70
2022-08-16T06:07:25.034Z,2.95
2022-08-16T06:10:11.882Z,2.72
2022-08-16T06:12:39.631Z,2.70
2022-08-16T06:15:11.588Z,3.13
2022-08-16T06:17:44.358Z,2.33
2022-08-16T06:20:24.365Z,3.00
2022-08-16T06:23:03.099Z,2.60
2022-08-16T06:25:39.510Z,2.78
2022-08-16T06:28:09.660Z,2.60
2022-08-16T06:30:44.211Z,2.80
2022-08-16T06:33:19.878Z,2.92
2022-08-16T06:35:55.021Z,2.65
2022-08-16T06:38:33.413Z,2.60
2022-08-16T06:41:13.719Z,2.65
2022-08-16T06:43:42.598Z,2.70
2022-08-16T06:46:32.066Z,2.67
2022-08-16T06:49:07.463Z,2.67
2022-08-16T06:51:46.089Z,2.50
2022-08-16T06:54:19.564Z,2.55
2022-08-16T06:56:47.282Z,3.15
2022-08-16T06:59:20.090Z,2.63
2022-08-16T07:01:55.257Z,2.70
2022-08-16T07:04:32.668Z,3.00
2022-08-16T07:07:15.563Z,2.92
2022-08-16T07:09:43.606Z,2.90
2022-08-16T07:12:11.839Z,2.92
2022-08-16T07:14:45.342Z,2.88
2022-08-16T07:17:18.317Z,3.03
2022-08-16T07:20:03.951Z,3.17
2022-08-16T07:22:59.138Z,2.75
2022-08-16T07:25:41.100Z,2.83
2022-08-16T07:28:20.744Z,2.72
2022-08-16T07:30:53.906Z,2.63
2022-08-16T07:33:52.226Z,2.90
2022-08-16T07:36:22.652Z,2.72
2022-08-16T07:38:52.378Z,3.00
2022-08-16T07:41:20.866Z,2.72
2022-08-16T07:43:53.789Z,2.88
2022-08-16T07:46:38.527Z,2.97
2022-08-16T07:49:18.121Z,2.80
2022-08-16T07:51:46.117Z,2.97
2022-08-16T07:54:21.141Z,2.90
2022-08-16T07:57:01.901Z,2.88
2022-08-16T07:59:42.889Z,2.80
2022-08-16T08:02:20.396Z,2.63
2022-08-16T08:04:51.888Z,2.97
2022-08-16T08:07:20.864Z,3.33
2022-08-16T08:09:51.009Z,2.50
2022-08-16T08:12:32.368Z,3.20
2022-08-16T08:15:09.680Z,2.97
2022-08-16T08:17:43.198Z,3.00
2022-08-16T08:20:26.348Z,2.90
2022-08-16T08:23:00.929Z,2.75
2022-08-16T08:25:53.826Z,2.63
2022-08-16T08:28:24.162Z,2.55
2022-08-16T08:31:01.128Z,2.92
2022-08-16T08:33:31.947Z,2.60
2022-08-16T08:36:03.093Z,2.67
2022-08-16T08:38:45.872Z,2.60
2022-08-16T08:41:19.013Z,2.70
2022-08-16T08:43:51.528Z,3.00
2022-08-16T08:46:22.047Z,2.65
2022-08-16T08:48:59.628Z,3.10
2022-08-16T08:51:36.821Z,2.80
2022-08-16T08:54:09.392Z,2.63
2022-08-16T08:56:45.924Z,2.88
2022-08-16T08:59:40.991Z,2.72
2022-08-16T09:02:11.643Z,2.60
2022-08-16T09:04:47.805Z,2.55
2022-08-16T09:07:18.217Z,2.53
2022-08-16T09:09:47.704Z,2.80
2022-08-16T09:12:31.265Z,2.88
2022-08-16T09:15:11.475Z,2.60
2022-08-16T09:17:51.938Z,2.65
2022-08-16T09:20:27.696Z,3.00
2022-08-16T09:22:55.608Z,2.60
2022-08-16T09:25:34.099Z,2.55
2022-08-16T09:28:09.236Z,2.90
2022-08-16T09:30:45.641Z,2.85
2022-08-16T09:33:18.399Z,2.83
2022-08-16T09:35:53.224Z,2.83
2022-08-16T09:38:32.301Z,2.90
2022-08-16T09:41:01.187Z,2.67
2022-08-16T09:43:58.605Z,2.80
2022-08-16T09:46:48.447Z,2.70
2022-08-16T09:49:04.927Z,2.55
2022-08-16T09:51:37.535Z,2.42
2022-08-16T09:54:05.807Z,2.72
2022-08-16T09:56:34.719Z,2.78
2022-08-16T09:59:07.992Z,2.70
2022-08-16T10:01:36.801Z,3.08
2022-08-16T10:04:13.051Z,3.10
2022-08-16T10:09:25.648Z,3.00
2022-08-16T10:12:31.392Z,2.95
2022-08-16T10:15:00.938Z,2.80
2022-08-16T10:17:29.699Z,2.75
2022-08-16T10:19:57.793Z,2.80
2022-08-16T10:22:25.401Z,2.88
2022-08-16T10:24:55.967Z,3.10
2022-08-16T10:27:29.968Z,2.70
2022-08-16T10:30:24.735Z,2.60
2022-08-16T10:32:54.069Z,2.78
2022-08-16T10:35:21.530Z,3.08
2022-08-16T10:37:52.376Z,2.70
2022-08-16T10:40:29.144Z,2.92
2022-08-16T10:43:01.169Z,2.47
2022-08-16T10:45:36.409Z,2.80
2022-08-16T10:48:27.144Z,3.05
2022-08-16T10:50:59.717Z,2.60
2022-08-16T10:53:32.937Z,2.70
2022-08-16T10:56:06.443Z,3.13
2022-08-16T10:58:53.319Z,2.65
2022-08-16T11:01:43.829Z,2.58
2022-08-16T11:05:04.871Z,2.85
2022-08-16T11:09:44.100Z,3.00
2022-08-16T11:12:14.743Z,2.97
2022-08-16T11:15:11.227Z,2.67
2022-08-16T11:17:32.718Z,3.13
2022-08-16T11:20:36.701Z,2.70
2022-08-16T11:22:49.146Z,2.60
2022-08-16T11:28:06.611Z,2.60
2022-08-16T11:30:37.845Z,2.80
2022-08-16T11:33:07.836Z,2.67
2022-08-16T11:35:44.114Z,2.80
2022-08-16T11:38:47.369Z,2.97
2022-08-16T11:41:05.159Z,2.63
2022-08-16T11:43:36.639Z,2.47
2022-08-16T11:46:43.279Z,2.72
2022-08-16T11:48:55.661Z,2.60
2022-08-16T11:51:23.065Z,2.83
2022-08-16T11:53:50.545Z,2.80
2022-08-16T11:56:29.951Z,2.70
2022-08-16T11:59:07.256Z,3.03
2022-08-16T12:01:54.704Z,2.55
2022-08-16T12:04:22.502Z,2.95
2022-08-16T12:06:50.144Z,2.63
2022-08-16T12:09:21.888Z,2.70
2022-08-16T12:11:50.134Z,3.20
2022-08-16T12:14:23.041Z,2.90
2022-08-16T12:16:55.526Z,2.80
2022-08-16T12:19:33.676Z,3.05
2022-08-16T12:22:05.382Z,2.90
2022-08-16T12:24:34.170Z,2.80
2022-08-16T12:27:02.449Z,2.75
2022-08-16T12:29:30.524Z,2.65
2022-08-16T12:32:26.590Z,2.83
2022-08-16T12:34:52.690Z,2.90
2022-08-16T12:37:21.190Z,3.13
2022-08-16T12:39:56.303Z,2.90
2022-08-16T12:42:34.490Z,2.80
2022-08-16T12:45:04.995Z,2.92
2022-08-16T12:47:51.402Z,3.00
2022-08-16T12:50:19.098Z,2.70
2022-08-16T12:52:52.513Z,2.92
2022-08-16T12:57:58.649Z,2.90
2022-08-16T13:00:33.081Z,2.78
2022-08-16T13:03:01.892Z,2.80
2022-08-16T13:08:20.210Z,2.38
2022-08-16T13:10:50.669Z,2.88
2022-08-16T13:13:29.457Z,2.90
2022-08-16T13:16:02.087Z,3.30
2022-08-16T13:18:36.091Z,2.90
2022-08-16T13:21:07.345Z,2.90
2022-08-16T13:23:35.686Z,2.88
2022-08-16T13:26:04.273Z,3.15
2022-08-16T13:28:31.691Z,2.78
2022-08-16T13:31:00.299Z,3.33
2022-08-16T13:33:39.282Z,2.90
2022-08-16T13:36:17.187Z,2.85
2022-08-16T13:38:56.490Z,3.05
2022-08-16T13:41:30.004Z,3.17
2022-08-16T13:44:00.719Z,2.88
2022-08-16T13:46:30.242Z,3.00
2022-08-16T13:48:58.206Z,3.08
2022-08-16T13:51:28.986Z,3.03
2022-08-16T13:54:03.174Z,2.67
2022-08-16T13:56:37.619Z,3.63
2022-08-16T13:59:19.211Z,2.83
2022-08-16T14:01:55.930Z,3.10
2022-08-16T14:04:27.834Z,2.90
2022-08-16T14:06:58.765Z,2.78
2022-08-16T14:09:27.021Z,3.10
2022-08-16T14:11:55.948Z,3.13
2022-08-16T14:14:29.360Z,2.83
2022-08-16T14:16:58.518Z,3.00
2022-08-16T14:19:27.976Z,3.10
2022-08-16T14:22:14.444Z,3.35
2022-08-16T14:24:47.392Z,2.97
2022-08-16T14:27:18.832Z,2.85
2022-08-16T14:29:49.470Z,2.85
2022-08-16T14:32:27.080Z,2.88
2022-08-16T14:35:07.690Z,2.92
2022-08-16T14:37:35.705Z,3.05
2022-08-16T14:40:07.853Z,3.22
2022-08-16T14:42:36.637Z,2.80
2022-08-16T14:45:06.089Z,3.28
2022-08-16T14:47:37.133Z,2.85
2022-08-16T14:50:06.034Z,2.95
2022-08-16T14:55:21.619Z,3.20
2022-08-16T14:57:49.799Z,3.20
2022-08-16T15:00:32.771Z,3.13
2022-08-16T15:03:02.078Z,3.50
2022-08-16T15:08:02.108Z,3.08
2022-08-16T15:10:31.986Z,3.22
2022-08-16T15:13:01.112Z,2.83
2022-08-16T15:15:29.293Z,3.00
2022-08-16T15:17:57.754Z,3.28
2022-08-16T15:20:27.054Z,3.35
2022-08-16T15:23:01.363Z,3.05
2022-08-16T15:25:33.642Z,2.80
2022-08-16T15:28:05.442Z,3.50
2022-08-16T15:30:57.646Z,3.33
2022-08-16T15:33:25.489Z,2.95
2022-08-16T15:35:55.291Z,3.58
2022-08-16T15:38:57.962Z,3.15
2022-08-16T15:41:42.478Z,3.10
2022-08-16T15:44:21.341Z,3.38
2022-08-16T15:46:55.010Z,3.38
2022-08-16T15:49:37.590Z,3.65
2022-08-16T15:52:20.365Z,3.33
2022-08-16T15:54:52.374Z,3.05
2022-08-16T15:57:24.726Z,3.63
2022-08-16T15:59:58.414Z,3.10
2022-08-16T16:02:39.170Z,3.53
2022-08-16T16:05:09.770Z,3.40
2022-08-16T16:07:40.641Z,3.58
2022-08-16T16:10:13.177Z,3.30
2022-08-16T16:12:53.540Z,3.33
2022-08-16T16:15:25.265Z,2.90
2022-08-16T16:17:53.362Z,3.38
2022-08-16T16:20:21.705Z,3.20
2022-08-16T16:22:49.948Z,3.38
2022-08-16T16:25:18.021Z,3.40
2022-08-16T16:27:45.606Z,3.08
2022-08-16T16:30:37.897Z,2.97
2022-08-16T16:33:02.113Z,3.35
2022-08-16T16:35:32.881Z,3.00
2022-08-16T16:38:01.001Z,3.30
2022-08-16T16:40:33.237Z,3.28
2022-08-16T16:43:02.561Z,2.88
2022-08-16T16:45:34.931Z,3.25
2022-08-16T16:48:12.823Z,3.10
2022-08-16T16:50:44.672Z,3.28
2022-08-16T16:53:17.630Z,3.17
2022-08-16T16:55:47.526Z,3.22
2022-08-16T16:58:38.846Z,3.50
2022-08-16T17:01:08.268Z,3.17
2022-08-16T17:03:35.829Z,3.40
2022-08-16T17:06:09.314Z,3.35
2022-08-16T17:08:40.784Z,3.40
2022-08-16T17:11:09.860Z,3.28
2022-08-16T17:13:37.377Z,3.50
2022-08-16T17:16:05.638Z,3.33
2022-08-16T17:19:15.057Z,3.40
2022-08-16T17:21:24.848Z,3.00
2022-08-16T17:23:59.034Z,3.13
2022-08-16T17:26:30.876Z,3.20
2022-08-16T17:29:02.139Z,3.22
2022-08-16T17:31:43.480Z,3.20
2022-08-16T17:34:29.319Z,3.30
2022-08-16T17:37:00.442Z,3.25
2022-08-16T17:39:29.918Z,3.20
2022-08-16T17:41:58.790Z,3.33
2022-08-16T17:44:26.227Z,3.63
2022-08-16T17:46:53.696Z,3.10
2022-08-16T17:49:21.491Z,3.45
2022-08-16T17:51:51.342Z,3.17
2022-08-16T17:54:30.032Z,3.22
2022-08-16T17:57:00.801Z,3.47
2022-08-16T17:59:29.141Z,3.08
2022-08-16T18:01:57.348Z,3.20
2022-08-16T18:04:48.399Z,3.20
2022-08-16T18:07:12.820Z,3.50
2022-08-16T18:09:46.132Z,3.08
2022-08-16T18:12:20.524Z,3.55
2022-08-16T18:15:07.383Z,3.47
2022-08-16T18:17:34.903Z,3.40
2022-08-16T18:20:02.632Z,3.28
2022-08-16T18:22:31.033Z,3.30
2022-08-16T18:24:58.571Z,3.65
2022-08-16T18:27:32.619Z,3.80
2022-08-16T18:30:00.264Z,3.42
2022-08-16T18:32:28.338Z,3.30
2022-08-16T18:34:55.744Z,3.88
2022-08-16T18:37:23.771Z,3.47
2022-08-16T18:39:51.313Z,3.67
2022-08-16T18:42:21.531Z,3.65
2022-08-16T18:44:49.169Z,3.95
2022-08-16T18:47:17.658Z,3.50
2022-08-16T18:49:45.090Z,3.78
2022-08-16T18:52:14.794Z,3.47
2022-08-16T18:55:03.007Z,3.70
2022-08-16T18:57:40.496Z,3.30
2022-08-16T19:00:11.420Z,3.30
2022-08-16T19:02:57.538Z,3.70
2022-08-16T19:05:27.373Z,3.22
2022-08-16T19:07:54.803Z,3.70
2022-08-16T19:10:22.320Z,3.53
2022-08-16T19:12:49.971Z,3.90
2022-08-16T19:15:22.417Z,3.40
2022-08-16T19:17:49.970Z,3.58
2022-08-16T19:20:18.942Z,3.38
2022-08-16T19:25:48.247Z,3.55
2022-08-16T19:28:33.315Z,3.58
2022-08-16T19:31:17.117Z,3.50
2022-08-16T19:33:53.806Z,3.50
2022-08-16T19:36:35.164Z,3.88
2022-08-16T19:39:14.243Z,3.78
2022-08-16T19:41:44.446Z,3.58
2022-08-16T19:44:11.887Z,3.50
2022-08-16T19:46:43.485Z,3.70
2022-08-16T19:49:15.842Z,3.67
2022-08-16T19:51:47.255Z,4.20
2022-08-16T19:54:17.650Z,3.50
2022-08-16T19:56:45.087Z,3.65
2022-08-16T19:59:20.069Z,3.92
2022-08-16T20:01:51.102Z,3.50
2022-08-16T20:04:18.894Z,3.70
2022-08-16T20:06:47.115Z,3.90
2022-08-16T20:09:15.607Z,3.63
2022-08-16T20:11:44.719Z,3.70
2022-08-16T20:14:24.732Z,3.53
2022-08-16T20:16:54.942Z,4.05
2022-08-16T20:19:22.365Z,4.35
2022-08-16T20:21:49.907Z,3.72
2022-08-16T20:24:33.668Z,3.58
2022-08-16T20:27:05.679Z,3.50
2022-08-16T20:29:33.264Z,3.70
2022-08-16T20:32:00.764Z,3.70
2022-08-16T20:34:28.170Z,3.50
2022-08-16T20:36:55.592Z,4.15
2022-08-16T20:39:24.157Z,3.90
2022-08-16T20:41:51.690Z,3.83
2022-08-16T20:44:23.022Z,3.92
2022-08-16T20:46:52.931Z,3.63
2022-08-16T20:49:20.376Z,3.70
2022-08-16T20:51:50.503Z,3.92
2022-08-16T20:54:20.412Z,3.80
2022-08-16T20:56:48.177Z,3.97
2022-08-16T20:59:15.601Z,3.63
2022-08-16T21:01:46.221Z,3.50
2022-08-16T21:04:21.614Z,3.90
2022-08-16T21:06:54.369Z,4.00
2022-08-16T21:09:24.166Z,4.23
2022-08-16T21:11:52.895Z,4.00
2022-08-16T21:14:20.314Z,4.13
2022-08-16T21:16:47.758Z,3.63
2022-08-16T21:19:15.221Z,3.67
2022-08-16T21:21:42.644Z,3.55
2022-08-16T21:24:10.083Z,4.00
2022-08-16T21:26:39.045Z,3.63
2022-08-16T21:29:07.723Z,3.78
2022-08-16T21:31:40.659Z,3.67
2022-08-16T21:34:08.578Z,3.72
2022-08-16T21:36:36.682Z,4.05
2022-08-16T21:39:05.735Z,3.40
2022-08-16T21:41:34.408Z,4.13
2022-08-16T21:44:05.040Z,3.60
2022-08-16T21:46:33.902Z,3.58
2022-08-16T21:49:01.327Z,3.50
2022-08-16T21:51:28.779Z,3.58
2022-08-16T21:53:56.891Z,3.65
2022-08-16T21:56:24.352Z,4.10
2022-08-16T21:58:53.013Z,3.58
2022-08-16T22:01:23.861Z,3.70
2022-08-16T22:04:03.515Z,3.35
2022-08-16T22:06:39.134Z,3.60
2022-08-16T22:09:06.959Z,3.10
2022-08-16T22:11:34.420Z,3.40
2022-08-16T22:14:02.364Z,3.70
2022-08-16T22:16:31.691Z,3.70
2022-08-16T22:18:59.947Z,3.63
2022-08-16T22:21:27.451Z,3.45
2022-08-16T22:23:55.577Z,3.58
2022-08-16T22:26:32.651Z,3.60
2022-08-16T22:29:02.486Z,3.60
2022-08-16T22:31:30.097Z,3.28
2022-08-16T22:33:59.577Z,3.50
2022-08-16T22:36:28.803Z,3.80
2022-08-16T22:38:58.764Z,3.38
2022-08-16T22:41:31.767Z,3.90
2022-08-16T22:44:00.202Z,3.35
2022-08-16T22:46:27.686Z,3.55
2022-08-16T22:48:55.127Z,3.72
2022-08-16T22:51:23.656Z,3.25
2022-08-16T22:53:51.482Z,3.60
2022-08-16T22:56:20.419Z,3.15
2022-08-16T22:58:49.614Z,3.72
2022-08-16T23:01:18.825Z,3.10
2022-08-16T23:03:46.400Z,3.30
2022-08-16T23:06:15.529Z,3.40
2022-08-16T23:08:45.816Z,3.30
2022-08-16T23:11:22.560Z,3.50
2022-08-16T23:13:54.266Z,3.83
2022-08-16T23:16:30.853Z,3.35
2022-08-16T23:19:04.441Z,3.42
2022-08-16T23:21:32.200Z,3.83
2022-08-16T23:24:00.032Z,3.17
2022-08-16T23:26:46.488Z,3.63
2022-08-16T23:29:24.367Z,2.97
2022-08-16T23:32:10.725Z,3.30
2022-08-16T23:34:38.365Z,3.20
2022-08-16T23:37:08.679Z,3.53
2022-08-16T23:39:36.247Z,3.42
2022-08-16T23:42:15.423Z,3.58
2022-08-16T23:45:04.483Z,3.47
2022-08-16T23:47:33.983Z,3.47
2022-08-16T23:50:04.062Z,3.20
2022-08-16T23:52:45.724Z,3.45
2022-08-16T23:55:22.513Z,3.55
2022-08-16T23:57:50.199Z,3.45
